Terminal Aerodrome Forecast
Issued by NWS

Home | Current Version | Previous Version | Text Only | Print | Product List | Glossary On
Versions: 1 2 3 4 5 6 7 8 9 10 11 12 13 14 15 16 17 18
000
FTUS44 KHGX 261120
TAFSGR
TAF
KSGR 261120Z 2612/2712 16006KT P6SM FEW020 SCT180 BKN250
     FM261500 19006KT P6SM SCT030 SCT250
     FM261900 16009KT P6SM VCTS SCT050CB BKN250
     FM270100 15006KT P6SM FEW035 SCT250=

USA.gov is the U.S. government's official web portal to all federal, state and local government web resources and services.